createdAt,value
2017-11-13T00:02:17.581Z,2.97
2017-11-13T00:04:44.517Z,3.53
2017-11-13T00:07:11.085Z,3.10
2017-11-13T00:09:37.741Z,3.75
2017-11-13T00:12:04.294Z,3.53
2017-11-13T00:14:30.854Z,3.08
2017-11-13T00:16:57.480Z,2.80
2017-11-13T00:19:24.061Z,3.12
2017-11-13T00:21:50.638Z,3.97
2017-11-13T00:24:17.252Z,4.00
2017-11-13T00:26:43.824Z,3.70
2017-11-13T00:29:10.424Z,3.03
2017-11-13T00:31:37.065Z,3.45
2017-11-13T00:34:03.649Z,3.10
2017-11-13T00:36:30.595Z,3.67
2017-11-13T00:38:57.241Z,4.82
2017-11-13T00:41:23.820Z,3.45
2017-11-13T00:43:50.757Z,3.42
2017-11-13T00:46:17.765Z,2.65
2017-11-13T00:48:44.333Z,5.50
2017-11-13T00:51:10.913Z,3.40
2017-11-13T00:53:37.790Z,3.53
2017-11-13T00:56:04.365Z,3.85
2017-11-13T00:58:31.316Z,3.37
2017-11-13T01:00:57.958Z,2.70
2017-11-13T01:03:24.520Z,3.47
2017-11-13T01:05:51.089Z,3.33
2017-11-13T01:08:17.705Z,3.80
2017-11-13T01:10:44.285Z,4.15
2017-11-13T01:13:10.853Z,3.12
2017-11-13T01:15:37.698Z,4.68
2017-11-13T01:18:04.269Z,3.42
2017-11-13T01:20:31.209Z,4.55
2017-11-13T01:22:57.849Z,3.33
2017-11-13T01:25:24.417Z,3.33
2017-11-13T01:27:50.994Z,6.28
2017-11-13T01:30:17.716Z,3.87
2017-11-13T01:32:44.313Z,5.87
2017-11-13T01:35:10.892Z,3.80
2017-11-13T01:37:37.607Z,3.62
2017-11-13T01:40:04.233Z,3.80
2017-11-13T01:42:30.817Z,4.28
2017-11-13T01:44:57.456Z,3.72
2017-11-13T01:47:24.041Z,4.03
2017-11-13T01:49:50.625Z,4.40
2017-11-13T01:52:17.261Z,4.95
2017-11-13T01:54:43.845Z,3.92
2017-11-13T01:57:10.502Z,6.30
2017-11-13T01:59:37.523Z,3.92
2017-11-13T02:02:04.097Z,4.47
2017-11-13T02:04:30.717Z,4.95
2017-11-13T02:06:57.697Z,4.28
2017-11-13T02:09:24.353Z,4.60
2017-11-13T02:11:50.966Z,4.90
2017-11-13T02:14:17.632Z,4.28
2017-11-13T02:16:44.281Z,5.50
2017-11-13T02:19:10.941Z,5.07
2017-11-13T02:21:37.647Z,4.93
2017-11-13T02:24:04.733Z,4.45
2017-11-13T02:26:31.370Z,5.05
2017-11-13T02:28:58.154Z,5.20
2017-11-13T02:31:24.875Z,4.90
2017-11-13T02:33:51.526Z,8.25
2017-11-13T02:36:18.440Z,5.75
2017-11-13T02:38:45.094Z,5.62
2017-11-13T02:41:11.737Z,5.57
2017-11-13T02:43:38.843Z,4.68
2017-11-13T02:46:05.464Z,4.53
2017-11-13T02:48:32.149Z,4.40
2017-11-13T02:50:58.794Z,5.93
2017-11-13T02:53:25.514Z,6.40
2017-11-13T02:55:52.201Z,6.47
2017-11-13T02:58:18.961Z,5.60
2017-11-13T03:00:45.589Z,6.25
2017-11-13T03:03:12.185Z,6.20
2017-11-13T03:05:38.817Z,6.35
2017-11-13T03:08:05.416Z,7.57
2017-11-13T03:10:32.049Z,6.32
2017-11-13T03:12:58.712Z,6.35
2017-11-13T03:15:25.326Z,7.30
2017-11-13T03:17:51.904Z,6.78
2017-11-13T03:20:18.553Z,6.78
2017-11-13T03:22:45.153Z,7.10
2017-11-13T03:25:11.717Z,6.68
2017-11-13T03:27:38.496Z,6.97
2017-11-13T03:30:05.099Z,9.00
2017-11-13T03:32:31.773Z,7.90
2017-11-13T03:34:58.409Z,8.90
2017-11-13T03:37:25.014Z,8.20
2017-11-13T03:39:51.592Z,8.32
2017-11-13T03:42:18.230Z,8.38
2017-11-13T03:44:44.809Z,7.22
2017-11-13T03:47:11.742Z,7.32
2017-11-13T03:49:38.760Z,8.20
2017-11-13T03:52:05.343Z,7.82
2017-11-13T03:54:31.922Z,8.20
2017-11-13T03:56:58.556Z,8.20
2017-11-13T03:59:25.150Z,8.85
2017-11-13T04:01:52.098Z,9.60
2017-11-13T04:04:18.736Z,8.77
2017-11-13T04:06:45.308Z,9.48
2017-11-13T04:09:11.893Z,9.30
2017-11-13T04:11:38.553Z,10.70
2017-11-13T04:14:05.140Z,9.18
2017-11-13T04:16:31.769Z,9.20
2017-11-13T04:18:58.401Z,10.90
2017-11-13T04:21:25.064Z,9.88
2017-11-13T04:23:51.629Z,9.23
2017-11-13T04:26:18.296Z,8.63
2017-11-13T04:28:45.241Z,9.25
2017-11-13T04:31:11.809Z,9.38
2017-11-13T04:33:38.522Z,10.57
2017-11-13T04:36:05.104Z,10.38
2017-11-13T04:38:31.745Z,9.88
2017-11-13T04:40:58.376Z,9.48
2017-11-13T04:43:24.952Z,11.80
2017-11-13T04:45:51.894Z,12.90
2017-11-13T04:48:18.516Z,10.40
2017-11-13T04:50:45.089Z,11.15
2017-11-13T04:53:11.669Z,10.38
2017-11-13T04:55:38.316Z,11.38
2017-11-13T04:58:04.884Z,12.45
2017-11-13T05:00:31.849Z,11.20
2017-11-13T05:02:58.524Z,11.65
2017-11-13T05:05:25.151Z,12.65
2017-11-13T05:07:52.117Z,12.32
2017-11-13T05:10:18.785Z,11.25
2017-11-13T05:12:45.400Z,13.40
2017-11-13T05:15:12.041Z,12.43
2017-11-13T05:17:39.082Z,12.95
2017-11-13T05:20:06.043Z,13.13
2017-11-13T05:22:32.640Z,11.80
2017-11-13T05:24:59.969Z,12.80
2017-11-13T05:27:26.969Z,12.00
2017-11-13T05:29:53.576Z,12.50
2017-11-13T05:32:20.197Z,13.50
2017-11-13T05:34:47.305Z,13.18
2017-11-13T05:37:13.864Z,13.62
2017-11-13T05:39:40.489Z,12.40
2017-11-13T05:42:07.061Z,15.57
2017-11-13T05:44:33.644Z,11.50
2017-11-13T05:47:00.733Z,12.48
2017-11-13T05:49:27.304Z,12.40
2017-11-13T05:51:54.250Z,14.30
2017-11-13T05:54:20.905Z,14.40
2017-11-13T05:56:47.529Z,14.13
2017-11-13T05:59:14.109Z,16.37
2017-11-13T06:01:40.849Z,13.75
2017-11-13T06:04:07.457Z,13.55
2017-11-13T06:06:34.033Z,13.20
2017-11-13T06:09:00.658Z,13.65
2017-11-13T06:11:27.233Z,12.63
2017-11-13T06:13:53.808Z,13.30
2017-11-13T06:16:20.821Z,14.32
2017-11-13T06:18:47.420Z,13.50
2017-11-13T06:21:13.990Z,11.90
2017-11-13T06:23:41.009Z,13.65
2017-11-13T06:26:07.600Z,13.23
2017-11-13T06:28:34.169Z,13.65
2017-11-13T06:31:01.177Z,12.75
2017-11-13T06:33:27.796Z,14.73
2017-11-13T06:35:54.405Z,14.43
2017-11-13T06:38:21.037Z,15.13
2017-11-13T06:40:47.708Z,14.52
2017-11-13T06:43:14.280Z,14.63
2017-11-13T06:45:41.004Z,17.25
2017-11-13T06:48:07.599Z,14.63
2017-11-13T06:50:34.169Z,17.17
2017-11-13T06:53:01.186Z,13.00
2017-11-13T06:55:28.132Z,15.25
2017-11-13T06:57:54.701Z,14.05
2017-11-13T07:00:21.335Z,14.30
2017-11-13T07:02:47.905Z,14.75
2017-11-13T07:05:14.465Z,13.07
2017-11-13T07:07:41.124Z,13.38
2017-11-13T07:10:08.210Z,13.77
2017-11-13T07:12:34.801Z,12.43
2017-11-13T07:15:01.428Z,14.32
2017-11-13T07:17:27.997Z,15.55
2017-11-13T07:19:54.589Z,16.90
2017-11-13T07:22:21.256Z,14.87
2017-11-13T07:24:48.188Z,13.70
2017-11-13T07:27:15.136Z,13.23
2017-11-13T07:29:41.805Z,11.43
2017-11-13T07:32:08.382Z,8.90
2017-11-13T07:34:34.953Z,6.43
2017-11-13T07:37:08.733Z,10.60
2017-11-13T07:39:35.313Z,11.68
2017-11-13T07:42:01.880Z,13.77
2017-11-13T07:44:28.528Z,13.90
2017-11-13T07:46:55.466Z,12.82
2017-11-13T07:49:22.399Z,11.90
2017-11-13T07:51:49.125Z,10.25
2017-11-13T07:54:15.684Z,10.77
2017-11-13T07:56:42.260Z,13.65
2017-11-13T07:59:08.885Z,11.30
2017-11-13T08:01:35.466Z,10.15
2017-11-13T08:04:02.055Z,13.25
2017-11-13T08:06:28.889Z,13.27
2017-11-13T08:08:55.486Z,12.80
2017-11-13T08:11:22.057Z,14.98
2017-11-13T08:13:48.674Z,11.75
2017-11-13T08:16:15.246Z,12.88
2017-11-13T08:18:41.813Z,11.95
2017-11-13T08:21:08.461Z,11.85
2017-11-13T08:23:35.406Z,12.90
2017-11-13T08:26:02.033Z,13.77
2017-11-13T08:28:28.846Z,15.63
2017-11-13T08:30:55.940Z,15.57
2017-11-13T08:33:22.588Z,13.77
2017-11-13T08:35:49.749Z,21.50
2017-11-13T08:38:16.312Z,15.63
2017-11-13T08:40:42.885Z,15.88
2017-11-13T08:43:09.614Z,14.10
2017-11-13T08:45:36.205Z,14.32
2017-11-13T08:48:03.205Z,17.05
2017-11-13T08:50:30.007Z,17.70
2017-11-13T08:52:56.584Z,15.20
2017-11-13T08:55:23.545Z,14.95
2017-11-13T08:57:50.286Z,16.17
2017-11-13T09:00:16.904Z,15.93
2017-11-13T09:02:43.473Z,15.98
2017-11-13T09:05:10.477Z,17.50
2017-11-13T09:07:37.067Z,18.48
2017-11-13T09:10:03.726Z,18.85
2017-11-13T09:12:30.521Z,14.80
2017-11-13T09:14:57.120Z,17.10
2017-11-13T09:17:23.689Z,14.50
2017-11-13T09:19:50.307Z,14.40
2017-11-13T09:22:16.877Z,15.55
2017-11-13T09:24:43.444Z,14.00
2017-11-13T09:27:10.077Z,14.27
2017-11-13T09:29:36.667Z,13.48
2017-11-13T09:32:03.233Z,14.85
2017-11-13T09:34:29.848Z,14.60
2017-11-13T09:36:56.481Z,12.48
2017-11-13T09:39:23.444Z,12.15
2017-11-13T09:41:50.224Z,13.20
2017-11-13T09:44:17.199Z,13.77
2017-11-13T09:46:43.819Z,13.40
2017-11-13T09:49:10.485Z,13.18
2017-11-13T09:51:38.597Z,13.95
2017-11-13T09:54:05.193Z,10.73
2017-11-13T09:56:32.292Z,10.80
2017-11-13T09:58:58.933Z,14.48
2017-11-13T10:01:25.881Z,11.93
2017-11-13T10:03:52.526Z,13.62
2017-11-13T10:06:19.143Z,11.38
2017-11-13T10:08:45.737Z,11.35
2017-11-13T10:11:12.880Z,9.95
2017-11-13T10:13:39.497Z,9.18
2017-11-13T10:16:06.565Z,12.37
2017-11-13T10:18:33.285Z,10.00
2017-11-13T10:20:59.917Z,9.27
2017-11-13T10:23:26.520Z,11.30
2017-11-13T10:25:53.220Z,8.95
2017-11-13T10:28:19.797Z,10.82
2017-11-13T10:30:46.376Z,8.80
2017-11-13T10:33:13.057Z,8.35
2017-11-13T10:35:39.678Z,6.70
2017-11-13T10:38:06.278Z,9.10
2017-11-13T10:40:33.076Z,9.40
2017-11-13T10:42:59.757Z,9.30
2017-11-13T10:45:27.887Z,7.87
2017-11-13T10:47:54.604Z,8.93
2017-11-13T10:50:21.217Z,8.45
2017-11-13T10:52:47.817Z,9.30
2017-11-13T10:55:14.565Z,7.87
2017-11-13T10:57:41.202Z,8.23
2017-11-13T11:00:07.858Z,8.32
2017-11-13T11:02:34.684Z,7.30
2017-11-13T11:05:01.385Z,8.00
2017-11-13T11:07:28.017Z,7.00
2017-11-13T11:09:55.180Z,7.32
2017-11-13T11:12:25.669Z,7.35
2017-11-13T11:14:52.725Z,8.57
2017-11-13T11:17:22.334Z,7.50
2017-11-13T11:19:50.721Z,7.50
2017-11-13T11:22:18.310Z,8.55
2017-11-13T11:24:45.018Z,8.68
2017-11-13T11:27:13.445Z,8.65
2017-11-13T11:29:41.885Z,7.80
2017-11-13T11:32:10.538Z,9.38
2017-11-13T11:34:41.197Z,7.00
2017-11-13T11:37:10.702Z,8.05
2017-11-13T11:39:37.526Z,8.32
2017-11-13T11:42:04.153Z,6.97
2017-11-13T11:44:46.033Z,7.18
2017-11-13T11:47:13.043Z,7.12
2017-11-13T11:49:39.670Z,7.82
2017-11-13T11:52:06.399Z,7.43
2017-11-13T11:57:42.053Z,7.20
2017-11-13T12:00:09.153Z,6.95
2017-11-13T12:02:35.828Z,7.65
2017-11-13T12:05:02.512Z,6.60
2017-11-13T12:07:29.086Z,6.65
2017-11-13T12:09:55.695Z,6.70
2017-11-13T12:12:22.375Z,6.18
2017-11-13T12:14:48.988Z,5.40
2017-11-13T12:17:15.609Z,6.25
2017-11-13T12:19:42.234Z,6.43
2017-11-13T12:22:09.192Z,8.75
2017-11-13T12:24:35.777Z,5.05
2017-11-13T12:27:02.405Z,4.70
2017-11-13T12:29:28.985Z,5.68
2017-11-13T12:31:55.629Z,5.20
2017-11-13T12:34:22.374Z,5.80
2017-11-13T12:36:49.303Z,5.30
2017-11-13T12:39:15.925Z,5.00
2017-11-13T12:41:43.034Z,5.68
2017-11-13T12:44:09.650Z,6.25
2017-11-13T12:46:36.238Z,7.12
2017-11-13T12:49:02.889Z,5.35
2017-11-13T12:51:29.482Z,5.65
2017-11-13T12:53:56.044Z,5.03
2017-11-13T12:56:22.696Z,5.87
2017-11-13T12:58:49.289Z,4.55
2017-11-13T13:01:15.905Z,5.78
2017-11-13T13:03:42.595Z,5.90
2017-11-13T13:06:09.192Z,5.32
2017-11-13T13:08:35.813Z,5.90
2017-11-13T13:11:02.480Z,4.07
2017-11-13T13:13:29.100Z,4.30
2017-11-13T13:15:55.681Z,3.90
2017-11-13T13:18:22.377Z,3.83
2017-11-13T13:20:49.317Z,2.90
2017-11-13T13:23:16.272Z,4.20
2017-11-13T13:25:42.884Z,4.07
2017-11-13T13:28:09.514Z,3.90
2017-11-13T13:30:36.090Z,4.37
2017-11-13T13:33:02.765Z,3.65
2017-11-13T13:35:29.403Z,3.90
2017-11-13T13:37:56.016Z,2.95
2017-11-13T13:40:22.708Z,3.47
2017-11-13T13:42:49.308Z,3.12
2017-11-13T13:45:16.247Z,3.53
2017-11-13T13:47:43.243Z,3.87
2017-11-13T13:50:09.825Z,3.90
2017-11-13T13:52:36.400Z,3.35
2017-11-13T13:55:03.409Z,3.62
2017-11-13T13:57:30.042Z,4.50
2017-11-13T13:59:56.609Z,3.65
2017-11-13T14:02:23.345Z,3.58
2017-11-13T14:04:49.905Z,3.83
2017-11-13T14:07:16.473Z,3.17
2017-11-13T14:09:43.097Z,4.40
2017-11-13T14:12:09.713Z,3.20
2017-11-13T14:14:36.277Z,4.10
2017-11-13T14:17:02.905Z,3.75
2017-11-13T14:19:29.483Z,7.15
2017-11-13T14:21:56.057Z,4.03
2017-11-13T14:24:22.713Z,3.30
2017-11-13T14:26:49.289Z,5.62
2017-11-13T14:29:15.929Z,3.25
2017-11-13T14:31:42.986Z,4.25
2017-11-13T14:34:09.557Z,2.95
2017-11-13T14:36:36.142Z,6.57
2017-11-13T14:39:03.072Z,2.62
2017-11-13T14:41:29.638Z,3.28
2017-11-13T14:43:56.213Z,4.18
2017-11-13T14:46:22.850Z,2.67
2017-11-13T14:48:49.434Z,2.92
2017-11-13T14:51:16.009Z,2.65
2017-11-13T14:53:42.705Z,2.85
2017-11-13T14:56:09.277Z,2.60
2017-11-13T14:58:36.229Z,3.20
2017-11-13T15:01:02.870Z,2.62
2017-11-13T15:03:29.457Z,3.53
2017-11-13T15:05:56.414Z,3.10
2017-11-13T15:08:23.069Z,3.35
2017-11-13T15:10:49.649Z,2.90
2017-11-13T15:13:16.209Z,5.03
2017-11-13T15:15:42.838Z,3.70
2017-11-13T15:18:09.417Z,3.35
2017-11-13T15:20:35.993Z,4.12
2017-11-13T15:23:03.013Z,2.67
2017-11-13T15:25:29.581Z,2.85
2017-11-13T15:27:56.178Z,2.62
2017-11-13T15:30:23.045Z,6.62
2017-11-13T15:32:49.625Z,3.20
2017-11-13T15:35:16.560Z,5.90
2017-11-13T15:37:43.471Z,9.32
2017-11-13T15:40:10.430Z,2.65
2017-11-13T15:42:37.001Z,4.07
2017-11-13T15:45:03.646Z,6.50
2017-11-13T15:47:30.593Z,3.90
2017-11-13T15:49:57.169Z,3.53
2017-11-13T15:52:23.889Z,3.25
2017-11-13T15:54:50.477Z,2.97
2017-11-13T15:57:17.041Z,7.05
2017-11-13T15:59:43.692Z,3.58
2017-11-13T16:02:10.272Z,3.90
2017-11-13T16:04:36.858Z,4.05
2017-11-13T16:07:03.501Z,6.85
2017-11-13T16:09:30.151Z,3.87
2017-11-13T16:11:57.097Z,3.10
2017-11-13T16:14:24.176Z,3.95
2017-11-13T16:16:50.759Z,4.97
2017-11-13T16:19:17.353Z,7.22
2017-11-13T16:21:43.978Z,6.30
2017-11-13T16:24:10.916Z,4.25
2017-11-13T16:26:37.853Z,3.65
2017-11-13T16:29:04.938Z,4.85
2017-11-13T16:31:31.573Z,3.60
2017-11-13T16:33:58.264Z,2.80
2017-11-13T16:36:24.941Z,5.15
2017-11-13T16:38:51.921Z,5.72
2017-11-13T16:41:18.484Z,3.40
2017-11-13T16:43:45.486Z,4.22
2017-11-13T16:46:12.061Z,5.65
2017-11-13T16:48:38.632Z,5.20
2017-11-13T16:51:05.290Z,4.00
2017-11-13T16:53:31.882Z,5.20
2017-11-13T16:55:58.449Z,3.47
2017-11-13T16:58:25.077Z,3.25
2017-11-13T17:00:51.669Z,6.55
2017-11-13T17:03:18.613Z,4.05
2017-11-13T17:05:45.238Z,3.87
2017-11-13T17:08:11.817Z,4.12
2017-11-13T17:10:38.396Z,3.87
2017-11-13T17:13:05.075Z,4.35
2017-11-13T17:15:32.045Z,3.85
2017-11-13T17:17:58.625Z,3.12
2017-11-13T17:20:25.668Z,3.25
2017-11-13T17:22:52.245Z,4.00
2017-11-13T17:25:18.828Z,6.37
2017-11-13T17:27:45.464Z,4.12
2017-11-13T17:30:12.040Z,4.70
2017-11-13T17:32:38.977Z,6.28
2017-11-13T17:35:05.839Z,4.85
2017-11-13T17:37:32.402Z,10.55
2017-11-13T17:39:59.013Z,4.07
2017-11-13T17:42:25.657Z,4.28
2017-11-13T17:44:52.620Z,4.03
2017-11-13T17:47:19.204Z,3.37
2017-11-13T17:49:46.197Z,8.57
2017-11-13T17:52:12.787Z,4.20
2017-11-13T17:54:39.420Z,4.95
2017-11-13T17:57:06.197Z,3.97
2017-11-13T17:59:33.132Z,4.37
2017-11-13T18:02:00.132Z,4.35
2017-11-13T18:04:26.780Z,5.25
2017-11-13T18:06:53.825Z,4.45
2017-11-13T18:09:20.420Z,4.12
2017-11-13T18:11:47.065Z,4.75
2017-11-13T18:14:13.701Z,10.25
2017-11-13T18:16:40.808Z,4.65
2017-11-13T18:19:07.634Z,3.67
2017-11-13T18:21:34.626Z,4.60
2017-11-13T18:24:01.197Z,4.50
2017-11-13T18:26:27.834Z,4.43
2017-11-13T18:28:54.400Z,4.97
2017-11-13T18:31:20.981Z,4.70
2017-11-13T18:33:47.633Z,5.12
2017-11-13T18:36:14.242Z,9.82
2017-11-13T18:38:40.941Z,3.75
2017-11-13T18:41:07.609Z,6.47
2017-11-13T18:43:34.204Z,4.20
2017-11-13T18:46:00.813Z,4.30
2017-11-13T18:48:27.445Z,4.03
2017-11-13T18:50:54.076Z,5.10
2017-11-13T18:53:20.652Z,5.37
2017-11-13T18:55:47.372Z,4.32
2017-11-13T18:58:13.966Z,4.93
2017-11-13T19:00:40.545Z,5.05
2017-11-13T19:03:07.184Z,6.95
2017-11-13T19:05:33.769Z,5.50
2017-11-13T19:08:00.349Z,8.75
2017-11-13T19:10:26.985Z,8.65
2017-11-13T19:12:53.969Z,6.32
2017-11-13T19:15:20.552Z,4.50
2017-11-13T19:17:47.252Z,5.00
2017-11-13T19:20:14.204Z,6.87
2017-11-13T19:22:40.906Z,5.35
2017-11-13T19:25:07.917Z,6.10
2017-11-13T19:27:34.597Z,4.65
2017-11-13T19:30:01.183Z,5.72
2017-11-13T19:32:28.201Z,9.93
2017-11-13T19:34:54.764Z,8.70
2017-11-13T19:37:22.198Z,5.12
2017-11-13T19:39:48.930Z,5.72
2017-11-13T19:42:15.500Z,10.05
2017-11-13T19:44:42.149Z,5.70
2017-11-13T19:47:08.877Z,6.12
2017-11-13T19:49:35.471Z,5.60
2017-11-13T19:52:02.048Z,6.28
2017-11-13T19:54:28.677Z,5.12
2017-11-13T19:56:55.246Z,8.60
2017-11-13T19:59:21.836Z,6.82
2017-11-13T20:01:49.386Z,6.78
2017-11-13T20:04:16.385Z,6.07
2017-11-13T20:06:42.963Z,6.32
2017-11-13T20:09:09.980Z,5.47
2017-11-13T20:11:36.941Z,4.12
2017-11-13T20:14:04.085Z,6.20
2017-11-13T20:16:30.709Z,3.70
2017-11-13T20:18:57.341Z,5.62
2017-11-13T20:21:23.920Z,4.93
2017-11-13T20:23:50.925Z,6.22
2017-11-13T20:26:17.925Z,4.05
2017-11-13T20:28:44.497Z,4.68
2017-11-13T20:31:11.513Z,4.75
2017-11-13T20:33:38.089Z,3.87
2017-11-13T20:36:04.657Z,8.55
2017-11-13T20:38:31.695Z,4.65
2017-11-13T20:40:58.757Z,6.05
2017-11-13T20:43:25.336Z,5.30
2017-11-13T20:45:51.968Z,5.43
2017-11-13T20:48:18.921Z,6.57
2017-11-13T20:50:46.408Z,5.47
2017-11-13T20:53:13.104Z,5.10
2017-11-13T20:55:39.729Z,4.80
2017-11-13T20:58:06.301Z,10.57
2017-11-13T21:00:33.361Z,4.20
2017-11-13T21:02:59.989Z,6.53
2017-11-13T21:05:26.556Z,6.95
2017-11-13T21:07:53.281Z,7.05
2017-11-13T21:10:19.858Z,5.35
2017-11-13T21:12:46.428Z,8.20
2017-11-13T21:15:13.181Z,6.62
2017-11-13T21:17:39.762Z,5.05
2017-11-13T21:20:06.348Z,6.00
2017-11-13T21:22:33.282Z,6.55
2017-11-13T21:24:59.859Z,7.15
2017-11-13T21:27:26.800Z,6.37
2017-11-13T21:29:53.437Z,5.30
2017-11-13T21:32:20.005Z,6.25
2017-11-13T21:34:46.580Z,5.72
2017-11-13T21:37:13.204Z,6.57
2017-11-13T21:39:40.007Z,5.62
2017-11-13T21:42:06.667Z,5.68
2017-11-13T21:44:33.308Z,11.18
2017-11-13T21:47:00.050Z,6.07
2017-11-13T21:49:27.101Z,6.40
2017-11-13T21:51:53.778Z,7.25
2017-11-13T21:54:20.360Z,4.43
2017-11-13T21:56:46.941Z,6.65
2017-11-13T21:59:14.067Z,7.22
2017-11-13T22:01:40.747Z,5.22
2017-11-13T22:04:07.326Z,6.10
2017-11-13T22:06:34.342Z,15.52
2017-11-13T22:09:01.368Z,6.30
2017-11-13T22:11:27.948Z,6.28
2017-11-13T22:13:54.607Z,6.35
2017-11-13T22:16:21.795Z,6.65
2017-11-13T22:18:48.452Z,7.55
2017-11-13T22:21:15.409Z,6.37
2017-11-13T22:23:42.380Z,6.03
2017-11-13T22:26:09.001Z,6.93
2017-11-13T22:28:35.644Z,6.70
2017-11-13T22:31:02.212Z,6.40
2017-11-13T22:33:29.166Z,4.90
2017-11-13T22:35:55.946Z,5.40
2017-11-13T22:38:22.989Z,5.62
2017-11-13T22:40:49.985Z,8.23
2017-11-13T22:43:16.716Z,7.80
2017-11-13T22:45:43.345Z,5.97
2017-11-13T22:48:09.973Z,7.82
2017-11-13T22:50:36.769Z,7.90
2017-11-13T22:53:03.425Z,8.60
2017-11-13T22:55:30.044Z,5.90
2017-11-13T22:57:56.697Z,9.50
2017-11-13T23:00:23.260Z,7.72
2017-11-13T23:02:49.834Z,8.13
2017-11-13T23:05:16.545Z,6.22
2017-11-13T23:07:43.489Z,6.82
2017-11-13T23:10:10.052Z,6.90
2017-11-13T23:12:36.772Z,8.00
2017-11-13T23:15:03.424Z,8.18
2017-11-13T23:17:30.377Z,7.25
2017-11-13T23:19:57.053Z,7.93
2017-11-13T23:22:23.630Z,7.78
2017-11-13T23:24:50.189Z,8.23
2017-11-13T23:27:16.809Z,7.80
2017-11-13T23:29:43.369Z,7.28
2017-11-13T23:32:10.328Z,13.30
2017-11-13T23:34:36.973Z,8.32
2017-11-13T23:37:03.537Z,7.53
2017-11-13T23:39:30.533Z,9.80
2017-11-13T23:41:57.401Z,9.30
2017-11-13T23:44:24.068Z,9.48
2017-11-13T23:46:50.633Z,9.98
2017-11-13T23:49:17.651Z,7.87
2017-11-13T23:51:44.652Z,9.48
2017-11-13T23:54:11.297Z,9.02
2017-11-13T23:56:37.972Z,7.70
2017-11-13T23:59:04.597Z,6.82
